createdAt,value
2022-10-22T00:00:34.727Z,7.83
2022-10-22T00:02:06.342Z,8.16
2022-10-22T00:03:37.818Z,7.93
2022-10-22T00:05:09.223Z,7.79
2022-10-22T00:06:40.726Z,9.86
2022-10-22T00:08:12.080Z,7.47
2022-10-22T00:09:43.579Z,6.11
2022-10-22T00:11:14.950Z,8.88
2022-10-22T00:12:46.850Z,7.21
2022-10-22T00:14:18.351Z,7.51
2022-10-22T00:15:49.958Z,6.92
2022-10-22T00:17:21.448Z,6.69
2022-10-22T00:18:52.817Z,6.10
2022-10-22T00:20:24.136Z,9.26
2022-10-22T00:21:55.546Z,9.28
2022-10-22T00:23:27.020Z,6.76
2022-10-22T00:24:58.556Z,7.96
2022-10-22T00:26:29.959Z,10.19
2022-10-22T00:28:01.480Z,8.35
2022-10-22T00:29:32.961Z,7.81
2022-10-22T00:31:04.394Z,9.41
2022-10-22T00:32:35.775Z,7.52
2022-10-22T00:34:07.341Z,9.02
2022-10-22T00:35:38.882Z,11.81
2022-10-22T00:37:10.720Z,9.53
2022-10-22T00:38:42.058Z,9.39
2022-10-22T00:40:13.659Z,8.77
2022-10-22T00:41:45.169Z,7.80
2022-10-22T00:43:16.783Z,9.28
2022-10-22T00:44:48.473Z,8.88
2022-10-22T00:46:20.018Z,8.55
2022-10-22T00:47:51.326Z,12.41
2022-10-22T00:49:22.769Z,8.02
2022-10-22T00:50:54.220Z,9.65
2022-10-22T00:52:25.645Z,7.42
2022-10-22T00:53:57.074Z,10.34
2022-10-22T00:55:28.450Z,9.13
2022-10-22T00:57:00.055Z,10.58
2022-10-22T00:58:31.655Z,7.02
2022-10-22T01:00:03.229Z,10.60
2022-10-22T01:01:34.637Z,8.66
2022-10-22T01:03:06.016Z,9.05
2022-10-22T01:04:37.704Z,10.10
2022-10-22T01:06:09.026Z,11.39
2022-10-22T01:07:40.391Z,8.70
2022-10-22T01:09:11.905Z,9.78
2022-10-22T01:10:43.310Z,7.65
2022-10-22T01:12:14.751Z,9.81
2022-10-22T01:13:46.189Z,11.01
2022-10-22T01:15:17.814Z,8.12
2022-10-22T01:16:49.220Z,10.44
2022-10-22T01:18:20.621Z,11.33
2022-10-22T01:19:53.101Z,11.73
2022-10-22T01:21:24.429Z,10.09
2022-10-22T01:22:55.941Z,11.59
2022-10-22T01:24:27.419Z,13.50
2022-10-22T01:25:58.763Z,12.39
2022-10-22T01:27:30.051Z,13.31
2022-10-22T01:29:01.774Z,10.88
2022-10-22T01:30:33.215Z,9.44
2022-10-22T01:32:04.840Z,11.45
2022-10-22T01:33:36.219Z,12.60
2022-10-22T01:35:07.651Z,11.17
2022-10-22T01:36:39.156Z,9.17
2022-10-22T01:38:10.768Z,11.34
2022-10-22T01:39:42.233Z,11.52
2022-10-22T01:41:13.614Z,11.55
2022-10-22T01:42:44.892Z,11.36
2022-10-22T01:44:16.432Z,10.01
2022-10-22T01:45:47.835Z,12.45
2022-10-22T01:47:19.340Z,8.72
2022-10-22T01:48:50.719Z,10.07
2022-10-22T01:50:22.010Z,11.19
2022-10-22T01:51:53.367Z,9.43
2022-10-22T01:53:24.746Z,11.73
2022-10-22T01:54:56.135Z,9.93
2022-10-22T01:56:27.551Z,10.33
2022-10-22T01:57:58.948Z,9.04
2022-10-22T01:59:30.352Z,9.84
2022-10-22T02:01:01.927Z,11.62
2022-10-22T02:02:33.440Z,11.18
2022-10-22T02:04:04.867Z,11.56
2022-10-22T02:05:36.240Z,9.79
2022-10-22T02:07:07.608Z,11.06
2022-10-22T02:08:39.016Z,11.51
2022-10-22T02:10:10.620Z,7.40
2022-10-22T02:11:41.962Z,11.09
2022-10-22T02:13:13.340Z,11.56
2022-10-22T02:14:44.754Z,8.81
2022-10-22T02:16:16.057Z,9.81
2022-10-22T02:17:47.657Z,11.40
2022-10-22T02:19:18.961Z,13.55
2022-10-22T02:20:50.268Z,11.40
2022-10-22T02:22:21.576Z,11.03
2022-10-22T02:23:53.009Z,8.53
2022-10-22T02:25:24.405Z,13.06
2022-10-22T02:26:55.825Z,10.56
2022-10-22T02:28:27.408Z,10.12
2022-10-22T02:29:58.849Z,9.28
2022-10-22T02:31:30.525Z,12.21
2022-10-22T02:33:02.010Z,10.09
2022-10-22T02:34:33.422Z,10.52
2022-10-22T02:36:04.788Z,11.73
2022-10-22T02:37:36.124Z,12.26
2022-10-22T02:39:07.582Z,12.37
2022-10-22T02:40:39.032Z,10.08
2022-10-22T02:42:10.786Z,11.41
2022-10-22T02:43:42.113Z,10.34
2022-10-22T02:45:13.383Z,12.26
2022-10-22T02:46:44.903Z,11.92
2022-10-22T02:48:16.865Z,12.41
2022-10-22T02:49:48.272Z,10.78
2022-10-22T02:51:19.955Z,9.51
2022-10-22T02:52:51.270Z,9.65
2022-10-22T02:54:22.689Z,10.27
2022-10-22T02:55:54.109Z,9.56
2022-10-22T02:57:30.672Z,9.85
2022-10-22T02:59:02.042Z,11.03
2022-10-22T03:00:33.696Z,11.76
2022-10-22T03:02:05.043Z,11.04
2022-10-22T03:03:36.458Z,10.76
2022-10-22T03:05:07.798Z,9.80
2022-10-22T03:06:39.234Z,10.84
2022-10-22T03:08:10.800Z,9.19
2022-10-22T03:09:42.119Z,13.43
2022-10-22T03:11:13.407Z,13.84
2022-10-22T03:12:44.856Z,11.21
2022-10-22T03:14:16.488Z,11.75
2022-10-22T03:15:47.922Z,11.54
2022-10-22T03:17:19.310Z,9.68
2022-10-22T03:18:50.818Z,10.32
2022-10-22T03:20:22.538Z,11.41
2022-10-22T03:21:54.017Z,12.08
2022-10-22T03:23:25.762Z,10.61
2022-10-22T03:24:57.619Z,10.92
2022-10-22T03:26:28.916Z,9.43
2022-10-22T03:28:00.398Z,11.20
2022-10-22T03:29:31.796Z,10.11
2022-10-22T03:31:03.180Z,11.83
2022-10-22T03:32:34.777Z,13.72
2022-10-22T03:34:06.054Z,11.82
2022-10-22T03:35:37.394Z,9.75
2022-10-22T03:37:08.713Z,12.34
2022-10-22T03:38:40.034Z,9.97
2022-10-22T03:40:11.306Z,11.13
2022-10-22T03:41:42.633Z,10.07
2022-10-22T03:43:13.989Z,9.48
2022-10-22T03:44:45.321Z,12.74
2022-10-22T03:46:16.790Z,15.82
2022-10-22T03:47:48.278Z,8.60
2022-10-22T03:49:19.581Z,13.17
2022-10-22T03:50:50.893Z,12.02
2022-10-22T03:52:22.623Z,13.96
2022-10-22T03:53:54.067Z,15.73
2022-10-22T03:55:25.580Z,11.67
2022-10-22T03:56:56.998Z,11.00
2022-10-22T03:58:28.374Z,12.00
2022-10-22T03:59:59.698Z,10.58
2022-10-22T04:01:31.294Z,10.23
2022-10-22T04:03:02.704Z,15.96
2022-10-22T04:04:34.111Z,11.01
2022-10-22T04:06:05.386Z,12.18
2022-10-22T04:07:36.730Z,12.09
2022-10-22T04:09:08.329Z,9.55
2022-10-22T04:10:39.855Z,10.80
2022-10-22T04:12:11.146Z,11.88
2022-10-22T04:13:42.576Z,9.39
2022-10-22T04:15:14.049Z,12.08
2022-10-22T04:16:45.503Z,10.30
2022-10-22T04:18:17.000Z,12.38
2022-10-22T04:19:48.316Z,13.30
2022-10-22T04:21:19.916Z,15.63
2022-10-22T04:22:51.307Z,13.79
2022-10-22T04:24:22.839Z,11.45
2022-10-22T04:25:54.361Z,12.91
2022-10-22T04:27:25.803Z,14.01
2022-10-22T04:28:57.148Z,11.24
2022-10-22T04:30:28.515Z,12.38
2022-10-22T04:31:59.927Z,10.17
2022-10-22T04:33:31.315Z,11.70
2022-10-22T04:35:02.994Z,13.22
2022-10-22T04:36:34.801Z,15.62
2022-10-22T04:38:06.202Z,12.60
2022-10-22T04:39:37.720Z,14.47
2022-10-22T04:41:09.323Z,10.07
2022-10-22T04:42:40.676Z,11.50
2022-10-22T04:44:15.860Z,12.48
2022-10-22T04:45:48.606Z,9.94
2022-10-22T04:47:20.050Z,8.34
2022-10-22T04:48:51.553Z,10.66
2022-10-22T04:50:22.864Z,9.82
2022-10-22T04:51:54.347Z,12.36
2022-10-22T04:53:25.635Z,10.28
2022-10-22T04:54:57.045Z,10.93
2022-10-22T04:56:28.655Z,9.33
2022-10-22T04:58:00.373Z,15.85
2022-10-22T04:59:31.863Z,11.08
2022-10-22T05:01:03.284Z,10.00
2022-10-22T05:02:34.645Z,9.51
2022-10-22T05:04:06.024Z,13.40
2022-10-22T05:05:37.402Z,11.82
2022-10-22T05:07:08.869Z,12.67
2022-10-22T05:08:40.223Z,11.64
2022-10-22T05:10:11.621Z,11.18
2022-10-22T05:11:43.098Z,11.02
2022-10-22T05:13:14.418Z,13.76
2022-10-22T05:14:46.029Z,11.43
2022-10-22T05:16:17.396Z,12.63
2022-10-22T05:17:48.735Z,13.11
2022-10-22T05:19:20.237Z,12.68
2022-10-22T05:20:51.664Z,14.31
2022-10-22T05:22:23.265Z,9.54
2022-10-22T05:23:54.580Z,12.64
2022-10-22T05:25:25.871Z,12.34
2022-10-22T05:26:57.189Z,12.24
2022-10-22T05:28:28.804Z,10.51
2022-10-22T05:30:00.185Z,10.16
2022-10-22T05:31:31.580Z,12.95
2022-10-22T05:33:03.083Z,14.01
2022-10-22T05:34:34.596Z,12.16
2022-10-22T05:36:05.953Z,12.98
2022-10-22T05:37:37.465Z,11.53
2022-10-22T05:39:09.048Z,8.61
2022-10-22T05:40:45.372Z,12.75
2022-10-22T05:42:16.779Z,11.79
2022-10-22T05:43:48.200Z,11.96
2022-10-22T05:45:19.585Z,10.12
2022-10-22T05:46:50.963Z,10.98
2022-10-22T05:48:22.310Z,13.64
2022-10-22T05:49:53.694Z,10.86
2022-10-22T05:51:25.349Z,10.73
2022-10-22T05:52:56.653Z,8.94
2022-10-22T05:54:27.959Z,8.68
2022-10-22T05:55:59.348Z,10.16
2022-10-22T05:57:30.755Z,10.08
2022-10-22T06:00:34.414Z,11.75
2022-10-22T06:02:05.769Z,10.03
2022-10-22T06:03:38.487Z,9.08
2022-10-22T06:05:09.883Z,10.46
2022-10-22T06:06:41.584Z,10.68
2022-10-22T06:08:16.787Z,9.61
2022-10-22T06:09:50.519Z,11.74
2022-10-22T06:11:21.906Z,11.18
2022-10-22T06:12:53.240Z,13.17
2022-10-22T06:14:24.639Z,12.06
2022-10-22T06:15:56.017Z,12.28
2022-10-22T06:17:27.734Z,12.62
2022-10-22T06:18:59.344Z,13.18
2022-10-22T06:20:31.039Z,13.10
2022-10-22T06:22:02.521Z,13.13
2022-10-22T06:23:33.829Z,13.12
2022-10-22T06:25:05.222Z,12.58
2022-10-22T06:28:43.830Z,14.76
2022-10-22T06:30:16.590Z,13.81
2022-10-22T06:31:53.152Z,13.19
2022-10-22T06:33:24.563Z,15.52
2022-10-22T06:34:56.502Z,14.52
2022-10-22T06:36:28.424Z,16.15
2022-10-22T06:37:59.769Z,14.30
2022-10-22T06:39:31.045Z,15.35
2022-10-22T06:41:02.362Z,12.56
2022-10-22T06:42:33.864Z,13.10
2022-10-22T06:44:05.257Z,13.68
2022-10-22T06:45:36.907Z,12.33
2022-10-22T06:47:08.822Z,13.49
2022-10-22T06:48:45.637Z,15.46
2022-10-22T06:50:17.151Z,16.19
2022-10-22T06:51:49.084Z,14.02
2022-10-22T06:54:51.888Z,13.91
2022-10-22T06:56:23.295Z,10.88
2022-10-22T06:57:54.987Z,11.90
2022-10-22T06:59:26.308Z,10.53
2022-10-22T07:00:57.712Z,11.98
2022-10-22T07:02:29.123Z,11.14
2022-10-22T07:04:00.506Z,10.06
2022-10-22T07:05:31.986Z,12.36
2022-10-22T07:07:03.399Z,11.53
2022-10-22T07:08:34.845Z,10.49
2022-10-22T07:10:06.199Z,12.36
2022-10-22T07:11:38.111Z,10.89
2022-10-22T07:13:09.562Z,11.03
2022-10-22T07:14:41.014Z,9.10
2022-10-22T07:16:12.381Z,11.21
2022-10-22T07:17:43.929Z,11.76
2022-10-22T07:19:15.360Z,9.82
2022-10-22T07:20:46.869Z,9.63
2022-10-22T07:22:18.293Z,10.37
2022-10-22T07:23:49.895Z,10.94
2022-10-22T07:25:21.313Z,10.30
2022-10-22T07:27:21.212Z,11.66
2022-10-22T07:28:52.616Z,12.41
2022-10-22T07:30:24.104Z,10.53
2022-10-22T07:31:55.663Z,11.70
2022-10-22T07:33:27.249Z,9.19
2022-10-22T07:35:03.909Z,10.10
2022-10-22T07:36:35.402Z,12.40
2022-10-22T07:38:37.811Z,10.26
2022-10-22T07:40:21.122Z,9.12
2022-10-22T07:41:52.562Z,10.71
2022-10-22T07:43:23.968Z,11.73
2022-10-22T07:44:55.495Z,13.14
2022-10-22T07:46:44.408Z,11.75
2022-10-22T07:48:17.183Z,9.85
2022-10-22T07:49:48.617Z,10.54
2022-10-22T07:51:20.099Z,10.21
2022-10-22T07:52:53.784Z,12.31
2022-10-22T07:56:43.556Z,9.54
2022-10-22T07:58:14.900Z,10.90
2022-10-22T07:59:46.739Z,10.74
2022-10-22T08:01:18.714Z,11.55
2022-10-22T08:02:50.246Z,8.39
2022-10-22T08:04:21.915Z,11.72
2022-10-22T08:06:16.166Z,8.87
2022-10-22T08:07:47.845Z,10.17
2022-10-22T08:09:19.473Z,9.72
2022-10-22T08:10:51.134Z,10.11
2022-10-22T08:12:22.515Z,8.66
2022-10-22T08:13:53.911Z,9.27
2022-10-22T08:15:25.440Z,10.92
2022-10-22T08:16:56.852Z,10.44
2022-10-22T08:18:28.192Z,10.02
2022-10-22T08:19:59.610Z,12.75
2022-10-22T08:21:31.228Z,9.53
2022-10-22T08:23:02.625Z,9.73
2022-10-22T08:24:35.036Z,7.93
2022-10-22T08:26:06.485Z,8.94
2022-10-22T08:27:38.173Z,11.71
2022-10-22T08:29:09.827Z,9.82
2022-10-22T08:30:41.285Z,10.34
2022-10-22T08:32:36.984Z,9.61
2022-10-22T08:34:08.473Z,8.54
2022-10-22T08:35:39.956Z,7.54
2022-10-22T08:37:11.547Z,11.12
2022-10-22T08:38:42.965Z,14.62
2022-10-22T08:40:14.684Z,10.74
2022-10-22T08:41:46.231Z,11.22
2022-10-22T08:43:17.669Z,9.61
2022-10-22T08:44:49.193Z,12.84
2022-10-22T08:46:25.631Z,11.22
2022-10-22T08:48:31.210Z,11.13
2022-10-22T08:50:02.961Z,10.41
2022-10-22T08:52:11.562Z,10.94
2022-10-22T08:53:42.928Z,8.42
2022-10-22T08:55:14.355Z,10.98
2022-10-22T08:56:45.806Z,11.24
2022-10-22T08:58:17.424Z,10.74
2022-10-22T08:59:49.189Z,12.35
2022-10-22T09:01:20.750Z,11.74
2022-10-22T09:02:52.283Z,8.90
2022-10-22T09:04:23.928Z,9.80
2022-10-22T09:05:55.385Z,10.56
2022-10-22T09:07:26.751Z,8.05
2022-10-22T09:08:58.502Z,11.77
2022-10-22T09:10:29.926Z,10.96
2022-10-22T09:12:01.508Z,10.12
2022-10-22T09:13:32.912Z,10.46
2022-10-22T09:15:04.254Z,11.98
2022-10-22T09:16:35.671Z,14.44
2022-10-22T09:18:07.203Z,9.34
2022-10-22T09:19:38.670Z,8.26
2022-10-22T09:21:10.087Z,9.47
2022-10-22T09:22:41.425Z,10.72
2022-10-22T09:24:12.754Z,9.47
2022-10-22T09:25:44.531Z,10.57
2022-10-22T09:27:15.956Z,10.96
2022-10-22T09:28:47.732Z,9.78
2022-10-22T09:30:19.342Z,10.56
2022-10-22T09:31:50.980Z,10.58
2022-10-22T09:33:24.061Z,11.43
2022-10-22T09:34:56.240Z,10.14
2022-10-22T09:36:27.601Z,10.30
2022-10-22T09:37:59.216Z,10.24
2022-10-22T09:39:30.809Z,9.82
2022-10-22T09:41:02.571Z,11.29
2022-10-22T09:42:34.139Z,11.29
2022-10-22T09:44:05.569Z,11.07
2022-10-22T09:45:37.110Z,11.78
2022-10-22T09:47:08.613Z,9.75
2022-10-22T09:48:40.278Z,10.08
2022-10-22T09:50:11.629Z,11.12
2022-10-22T09:51:42.956Z,10.67
2022-10-22T09:53:14.377Z,12.85
2022-10-22T09:54:45.867Z,11.72
2022-10-22T09:56:17.241Z,9.26
2022-10-22T09:57:49.132Z,11.42
2022-10-22T09:59:20.646Z,9.77
2022-10-22T10:00:51.992Z,7.65
2022-10-22T10:02:38.174Z,9.53
2022-10-22T10:04:10.699Z,10.68
2022-10-22T10:05:42.263Z,12.45
2022-10-22T10:07:13.578Z,9.64
2022-10-22T10:08:45.373Z,10.54
2022-10-22T10:10:16.787Z,10.48
2022-10-22T10:11:48.148Z,10.20
2022-10-22T10:13:19.585Z,10.32
2022-10-22T10:14:51.243Z,9.01
2022-10-22T10:16:22.914Z,10.64
2022-10-22T10:17:54.388Z,9.70
2022-10-22T10:19:25.935Z,10.51
2022-10-22T10:20:57.486Z,12.48
2022-10-22T10:22:29.029Z,10.85
2022-10-22T10:24:00.496Z,8.63
2022-10-22T10:25:31.961Z,11.61
2022-10-22T10:27:03.338Z,10.71
2022-10-22T10:28:34.728Z,9.33
2022-10-22T10:30:06.208Z,10.81
2022-10-22T10:31:37.613Z,10.71
2022-10-22T10:33:08.925Z,9.83
2022-10-22T10:34:40.778Z,10.75
2022-10-22T10:36:12.191Z,8.33
2022-10-22T10:37:43.571Z,7.74
2022-10-22T10:39:14.855Z,8.98
2022-10-22T10:40:46.294Z,9.02
2022-10-22T10:42:17.693Z,8.00
2022-10-22T10:43:49.148Z,9.70
2022-10-22T10:45:21.089Z,7.96
2022-10-22T10:46:52.628Z,8.87
2022-10-22T10:48:24.729Z,6.18
2022-10-22T10:50:01.202Z,6.20
2022-10-22T10:51:32.539Z,7.98
2022-10-22T10:53:04.002Z,8.30
2022-10-22T10:54:40.677Z,9.47
2022-10-22T10:56:12.297Z,11.10
2022-10-22T10:57:44.082Z,8.89
2022-10-22T10:59:15.678Z,7.86
2022-10-22T11:00:47.406Z,8.00
2022-10-22T11:02:18.832Z,7.75
2022-10-22T11:03:50.532Z,7.89
2022-10-22T11:05:22.100Z,8.36
2022-10-22T11:06:58.640Z,9.46
2022-10-22T11:08:33.586Z,9.52
2022-10-22T11:10:05.396Z,8.39
2022-10-22T11:11:40.795Z,8.43
2022-10-22T11:13:17.305Z,7.47
2022-10-22T11:14:48.836Z,7.98
2022-10-22T11:16:20.240Z,10.02
2022-10-22T11:17:51.669Z,9.05
2022-10-22T11:19:39.380Z,11.28
2022-10-22T11:21:21.663Z,8.49
2022-10-22T11:23:17.747Z,9.64
2022-10-22T11:24:50.702Z,8.52
2022-10-22T11:26:23.386Z,7.10
2022-10-22T11:27:58.523Z,6.14
2022-10-22T11:29:33.143Z,7.33
2022-10-22T11:31:04.737Z,5.88
2022-10-22T11:32:36.182Z,6.81
2022-10-22T11:34:21.736Z,7.33
2022-10-22T11:36:03.791Z,7.12
2022-10-22T11:37:35.263Z,5.77
2022-10-22T11:39:06.772Z,5.77
2022-10-22T11:40:38.345Z,7.38
2022-10-22T11:42:10.039Z,8.62
2022-10-22T11:43:41.617Z,6.89
2022-10-22T11:45:12.946Z,6.70
2022-10-22T11:46:44.324Z,6.06
2022-10-22T11:48:15.688Z,7.07
2022-10-22T11:49:47.103Z,6.76
2022-10-22T11:51:18.450Z,8.42
2022-10-22T11:52:49.801Z,7.13
2022-10-22T11:54:21.148Z,5.73
2022-10-22T11:55:52.614Z,7.42
2022-10-22T11:57:24.118Z,5.68
2022-10-22T11:58:55.479Z,7.62
2022-10-22T12:00:27.079Z,6.79
2022-10-22T12:01:58.645Z,7.96
2022-10-22T12:03:30.039Z,5.92
2022-10-22T12:05:01.587Z,8.09
2022-10-22T12:06:33.088Z,6.18
2022-10-22T12:08:04.733Z,7.82
2022-10-22T12:09:36.146Z,5.12
2022-10-22T12:11:07.456Z,7.49
2022-10-22T12:12:39.141Z,6.10
2022-10-22T12:14:10.650Z,5.78
2022-10-22T12:15:42.041Z,9.94
2022-10-22T12:17:13.946Z,7.98
2022-10-22T12:18:45.453Z,7.92
2022-10-22T12:20:16.860Z,5.24
2022-10-22T12:21:48.200Z,6.29
2022-10-22T12:23:19.538Z,7.14
2022-10-22T12:24:51.293Z,7.18
2022-10-22T12:26:22.721Z,6.49
2022-10-22T12:27:54.058Z,7.04
2022-10-22T12:29:30.418Z,6.99
2022-10-22T12:31:01.894Z,8.57
2022-10-22T12:32:33.255Z,7.44
2022-10-22T12:34:04.839Z,7.90
2022-10-22T12:35:36.227Z,5.08
2022-10-22T12:37:07.666Z,5.01
2022-10-22T12:38:39.606Z,5.91
2022-10-22T12:40:11.040Z,6.35
2022-10-22T12:41:42.406Z,7.03
2022-10-22T12:43:13.762Z,6.46
2022-10-22T12:44:45.632Z,6.72
2022-10-22T12:46:17.161Z,6.62
2022-10-22T12:47:48.560Z,6.41
2022-10-22T12:49:20.207Z,7.42
2022-10-22T12:50:51.553Z,6.73
2022-10-22T12:52:23.199Z,5.90
2022-10-22T12:53:54.643Z,5.48
2022-10-22T12:55:26.020Z,6.50
2022-10-22T12:56:57.482Z,6.98
2022-10-22T12:58:29.143Z,6.60
2022-10-22T13:01:31.863Z,6.92
2022-10-22T13:03:03.170Z,6.44
2022-10-22T13:04:34.618Z,6.60
2022-10-22T13:06:06.212Z,6.41
2022-10-22T13:07:37.777Z,7.14
2022-10-22T13:09:09.316Z,8.20
2022-10-22T13:10:55.913Z,7.22
2022-10-22T13:12:27.363Z,7.52
2022-10-22T13:13:58.832Z,7.69
2022-10-22T13:15:30.332Z,6.86
2022-10-22T13:17:02.004Z,8.05
2022-10-22T13:18:33.469Z,9.15
2022-10-22T13:20:04.884Z,9.53
2022-10-22T13:21:49.902Z,8.13
2022-10-22T13:23:21.256Z,7.94
2022-10-22T13:24:52.895Z,7.71
2022-10-22T13:26:24.596Z,7.57
2022-10-22T13:27:56.060Z,7.14
2022-10-22T13:29:27.454Z,6.05
2022-10-22T13:30:59.990Z,6.57
2022-10-22T13:32:31.460Z,6.12
2022-10-22T13:34:06.561Z,6.37
2022-10-22T13:35:41.504Z,6.80
2022-10-22T13:37:18.058Z,5.75
2022-10-22T13:38:49.409Z,6.04
2022-10-22T13:40:20.768Z,6.15
2022-10-22T13:41:52.284Z,6.85
2022-10-22T13:43:23.778Z,6.70
2022-10-22T13:44:55.464Z,4.54
2022-10-22T13:46:26.921Z,5.48
2022-10-22T13:47:58.308Z,4.78
2022-10-22T13:49:29.736Z,4.89
2022-10-22T13:51:01.067Z,7.34
2022-10-22T13:52:32.429Z,5.70
2022-10-22T13:54:03.734Z,5.38
2022-10-22T13:55:35.198Z,6.16
2022-10-22T13:57:06.533Z,4.74
2022-10-22T13:58:37.907Z,4.82
2022-10-22T14:00:09.227Z,6.16
2022-10-22T14:01:40.604Z,6.83
2022-10-22T14:03:11.924Z,5.81
2022-10-22T14:04:43.298Z,3.99
2022-10-22T14:06:14.615Z,4.85
2022-10-22T14:07:45.975Z,6.96
2022-10-22T14:09:17.421Z,6.18
2022-10-22T14:10:48.862Z,5.25
2022-10-22T14:12:20.493Z,6.95
2022-10-22T14:13:52.091Z,5.25
2022-10-22T14:15:23.754Z,7.18
2022-10-22T14:16:55.297Z,4.58
2022-10-22T14:18:26.911Z,5.57
2022-10-22T14:19:58.355Z,6.03
2022-10-22T14:21:29.707Z,6.04
2022-10-22T14:23:01.270Z,5.09
2022-10-22T14:24:32.686Z,7.81
2022-10-22T14:26:04.009Z,5.34
2022-10-22T14:27:35.609Z,6.13
2022-10-22T14:29:09.781Z,7.24
2022-10-22T14:30:41.974Z,6.15
2022-10-22T14:32:14.001Z,5.35
2022-10-22T14:33:45.341Z,4.94
2022-10-22T14:35:16.896Z,10.67
2022-10-22T14:36:48.251Z,5.40
2022-10-22T14:38:19.873Z,7.07
2022-10-22T14:40:17.885Z,4.96
2022-10-22T14:41:49.247Z,6.74
2022-10-22T14:43:20.934Z,4.47
2022-10-22T14:44:52.566Z,5.95
2022-10-22T14:46:23.891Z,6.78
2022-10-22T14:47:55.574Z,4.68
2022-10-22T14:49:28.387Z,6.57
2022-10-22T14:50:59.948Z,4.69
2022-10-22T14:52:31.391Z,6.17
2022-10-22T14:54:02.922Z,4.99
2022-10-22T14:55:34.491Z,6.57
2022-10-22T14:57:05.812Z,6.71
2022-10-22T14:58:37.174Z,6.86
2022-10-22T15:00:08.508Z,7.20
2022-10-22T15:01:40.088Z,6.71
2022-10-22T15:03:11.414Z,4.94
2022-10-22T15:04:42.871Z,6.87
2022-10-22T15:06:14.251Z,6.01
2022-10-22T15:07:45.665Z,8.19
2022-10-22T15:09:17.067Z,6.53
2022-10-22T15:10:48.540Z,5.71
2022-10-22T15:12:19.918Z,7.14
2022-10-22T15:13:51.363Z,6.08
2022-10-22T15:15:23.789Z,6.76
2022-10-22T15:16:56.088Z,5.38
2022-10-22T15:18:27.430Z,5.94
2022-10-22T15:19:58.902Z,5.61
2022-10-22T15:21:30.336Z,6.34
2022-10-22T15:23:01.855Z,5.95
2022-10-22T15:24:33.170Z,5.71
2022-10-22T15:26:04.761Z,5.48
2022-10-22T15:27:36.399Z,5.46
2022-10-22T15:29:07.797Z,4.64
2022-10-22T15:30:39.436Z,4.66
2022-10-22T15:32:10.935Z,4.57
2022-10-22T15:33:42.337Z,5.75
2022-10-22T15:35:13.765Z,6.96
2022-10-22T15:36:45.112Z,6.56
2022-10-22T15:38:16.725Z,5.97
2022-10-22T15:39:48.184Z,5.16
2022-10-22T15:41:20.021Z,7.82
2022-10-22T15:42:51.364Z,5.13
2022-10-22T15:44:22.854Z,6.34
2022-10-22T15:45:54.345Z,5.13
2022-10-22T15:47:25.686Z,6.86
2022-10-22T15:48:57.190Z,7.46
2022-10-22T15:50:28.674Z,10.04
2022-10-22T15:52:00.201Z,6.48
2022-10-22T15:53:31.742Z,8.03
2022-10-22T15:55:03.261Z,5.20
2022-10-22T15:56:35.014Z,6.44
2022-10-22T15:58:06.412Z,6.20
2022-10-22T15:59:37.865Z,7.28
2022-10-22T16:01:09.484Z,9.97
2022-10-22T16:02:41.033Z,8.22
2022-10-22T16:04:13.567Z,7.64
2022-10-22T16:05:45.084Z,7.39
2022-10-22T16:07:18.053Z,6.99
2022-10-22T16:08:52.669Z,9.71
2022-10-22T16:10:24.043Z,9.39
2022-10-22T16:11:55.467Z,7.08
2022-10-22T16:13:27.125Z,7.64
2022-10-22T16:14:58.497Z,9.67
2022-10-22T16:16:29.884Z,7.24
2022-10-22T16:18:01.249Z,6.12
2022-10-22T16:19:32.542Z,7.55
2022-10-22T16:21:03.993Z,7.42
2022-10-22T16:22:35.672Z,10.44
2022-10-22T16:24:07.164Z,8.99
2022-10-22T16:25:39.004Z,8.63
2022-10-22T16:27:10.801Z,6.87
2022-10-22T16:28:42.169Z,6.73
2022-10-22T16:30:13.620Z,7.88
2022-10-22T16:31:45.196Z,7.17
2022-10-22T16:33:16.608Z,7.04
2022-10-22T16:34:48.153Z,7.64
2022-10-22T16:36:19.633Z,8.64
2022-10-22T16:37:50.989Z,7.56
2022-10-22T16:39:22.482Z,7.80
2022-10-22T16:40:53.916Z,8.60
2022-10-22T16:42:25.320Z,7.74
2022-10-22T16:43:56.647Z,6.85
2022-10-22T16:45:28.042Z,6.58
2022-10-22T16:46:59.390Z,6.32
2022-10-22T16:48:30.735Z,7.83
2022-10-22T16:50:02.165Z,7.24
2022-10-22T16:51:34.239Z,8.77
2022-10-22T16:53:05.929Z,7.54
2022-10-22T16:54:37.409Z,7.18
2022-10-22T16:56:08.706Z,9.00
2022-10-22T16:57:40.574Z,6.19
2022-10-22T16:59:12.248Z,9.38
2022-10-22T17:00:43.911Z,7.13
2022-10-22T17:02:15.670Z,6.94
2022-10-22T17:03:47.230Z,8.18
2022-10-22T17:05:18.561Z,7.78
2022-10-22T17:06:50.461Z,12.29
2022-10-22T17:08:21.767Z,11.33
2022-10-22T17:09:53.191Z,8.61
2022-10-22T17:11:24.744Z,9.12
2022-10-22T17:12:56.281Z,10.90
2022-10-22T17:14:27.666Z,9.28
2022-10-22T17:15:58.969Z,10.67
2022-10-22T17:17:30.309Z,10.54
2022-10-22T17:19:01.625Z,11.20
2022-10-22T17:20:57.224Z,9.69
2022-10-22T17:22:33.976Z,12.44
2022-10-22T17:24:05.423Z,10.84
2022-10-22T17:25:37.168Z,9.26
2022-10-22T17:27:13.532Z,11.60
2022-10-22T17:28:44.896Z,11.75
2022-10-22T17:30:27.307Z,9.45
2022-10-22T17:32:09.049Z,8.53
2022-10-22T17:33:50.398Z,10.77
2022-10-22T17:35:32.615Z,11.12
2022-10-22T17:37:04.219Z,13.15
2022-10-22T17:39:03.836Z,11.76
2022-10-22T17:40:37.294Z,9.60
2022-10-22T17:42:08.839Z,12.37
2022-10-22T17:43:40.389Z,11.01
2022-10-22T17:45:12.164Z,17.72
2022-10-22T17:46:43.488Z,16.38
2022-10-22T17:48:14.910Z,14.80
2022-10-22T17:49:46.213Z,16.37
2022-10-22T17:51:17.687Z,13.89
2022-10-22T17:52:54.343Z,13.72
2022-10-22T17:54:25.657Z,15.35
2022-10-22T17:55:57.167Z,18.10
2022-10-22T17:57:28.500Z,54.88
2022-10-22T17:58:59.892Z,86.39
2022-10-22T18:00:31.472Z,52.57
2022-10-22T18:02:03.186Z,26.84
2022-10-22T18:03:34.514Z,17.86
2022-10-22T18:05:06.012Z,19.34
2022-10-22T18:06:37.570Z,53.29
2022-10-22T18:08:09.023Z,67.56
2022-10-22T18:09:40.467Z,21.64
2022-10-22T18:11:11.839Z,22.95
2022-10-22T18:12:43.522Z,19.93
2022-10-22T18:14:15.286Z,14.10
2022-10-22T18:15:46.589Z,12.14
2022-10-22T18:17:18.200Z,43.34
2022-10-22T18:18:50.102Z,70.96
2022-10-22T18:20:21.390Z,32.39
2022-10-22T18:21:52.706Z,30.15
2022-10-22T18:23:24.093Z,17.46
2022-10-22T18:24:55.418Z,12.51
2022-10-22T18:26:27.223Z,20.23
2022-10-22T18:27:58.820Z,88.28
2022-10-22T18:29:30.319Z,49.20
2022-10-22T18:31:01.706Z,12.85
2022-10-22T18:32:33.392Z,12.82
2022-10-22T18:34:04.686Z,13.68
2022-10-22T18:35:36.579Z,13.72
2022-10-22T18:37:14.174Z,11.88
2022-10-22T18:38:45.568Z,11.03
2022-10-22T18:40:17.145Z,10.26
2022-10-22T18:41:49.116Z,13.63
2022-10-22T18:43:20.410Z,13.46
2022-10-22T18:44:51.961Z,13.14
2022-10-22T18:46:23.375Z,16.43
2022-10-22T18:47:54.765Z,15.71
2022-10-22T18:49:26.285Z,22.18
2022-10-22T18:50:57.900Z,17.96
2022-10-22T18:52:29.535Z,15.68
2022-10-22T18:54:18.270Z,10.71
2022-10-22T18:55:53.816Z,11.90
2022-10-22T18:57:25.334Z,15.44
2022-10-22T18:58:56.922Z,11.69
2022-10-22T19:00:28.424Z,11.30
2022-10-22T19:01:59.934Z,11.26
2022-10-22T19:03:31.354Z,12.62
2022-10-22T19:05:02.787Z,11.90
2022-10-22T19:06:37.126Z,10.74
2022-10-22T19:08:08.893Z,9.96
2022-10-22T19:09:40.509Z,11.95
2022-10-22T19:11:11.812Z,10.44
2022-10-22T19:12:43.122Z,12.05
2022-10-22T19:14:19.658Z,9.54
2022-10-22T19:15:51.124Z,9.53
2022-10-22T19:17:22.422Z,10.22
2022-10-22T19:18:53.732Z,12.40
2022-10-22T19:20:25.123Z,13.83
2022-10-22T19:21:56.570Z,12.04
2022-10-22T19:23:27.982Z,13.75
2022-10-22T19:24:59.505Z,12.64
2022-10-22T19:26:30.871Z,11.56
2022-10-22T19:28:02.361Z,10.99
2022-10-22T19:29:33.898Z,11.10
2022-10-22T19:31:05.366Z,11.78
2022-10-22T19:32:36.825Z,10.82
2022-10-22T19:34:08.134Z,10.62
2022-10-22T19:35:44.490Z,8.99
2022-10-22T19:37:15.804Z,12.61
2022-10-22T19:38:47.305Z,12.95
2022-10-22T19:40:18.671Z,10.60
2022-10-22T19:41:50.339Z,10.94
2022-10-22T19:43:21.911Z,10.83
2022-10-22T19:44:53.310Z,9.94
2022-10-22T19:46:24.646Z,12.89
2022-10-22T19:47:56.200Z,14.45
2022-10-22T19:49:27.477Z,11.09
2022-10-22T19:51:00.375Z,10.97
2022-10-22T19:52:36.924Z,9.39
2022-10-22T19:54:08.261Z,9.46
2022-10-22T19:55:39.560Z,10.71
2022-10-22T19:57:10.889Z,9.06
2022-10-22T19:58:42.363Z,9.89
2022-10-22T20:00:31.885Z,11.12
2022-10-22T20:02:03.362Z,10.41
2022-10-22T20:03:34.894Z,13.24
2022-10-22T20:05:06.309Z,12.61
2022-10-22T20:06:37.974Z,9.42
2022-10-22T20:08:09.272Z,11.27
2022-10-22T20:09:40.598Z,10.85
2022-10-22T20:11:11.949Z,10.17
2022-10-22T20:12:48.366Z,10.51
2022-10-22T20:14:19.757Z,12.21
2022-10-22T20:15:51.337Z,9.77
2022-10-22T20:17:22.796Z,10.91